createdAt,value
2023-02-12T00:03:33.056Z,84.00
2023-02-12T00:06:02.437Z,86.80
2023-02-12T00:08:30.685Z,91.50
2023-02-12T00:10:58.939Z,92.10
2023-02-12T00:13:27.283Z,91.90
2023-02-12T00:15:57.376Z,92.60
2023-02-12T00:18:25.776Z,91.90
2023-02-12T00:20:54.109Z,92.80
2023-02-12T00:23:22.325Z,91.80
2023-02-12T00:25:50.643Z,92.60
2023-02-12T00:28:18.940Z,93.10
2023-02-12T00:30:47.367Z,93.70
2023-02-12T00:33:17.169Z,93.70
2023-02-12T00:35:45.618Z,93.10
2023-02-12T00:38:13.860Z,93.50
2023-02-12T00:40:42.155Z,93.20
2023-02-12T00:43:10.371Z,94.20
2023-02-12T00:45:38.766Z,94.90
2023-02-12T00:48:07.149Z,94.60
2023-02-12T00:50:36.795Z,94.90
2023-02-12T00:53:05.082Z,93.90
2023-02-12T00:55:34.131Z,95.40
2023-02-12T00:58:02.411Z,96.60
2023-02-12T01:00:30.704Z,96.30
2023-02-12T01:02:58.975Z,96.10
2023-02-12T01:05:27.331Z,95.90
2023-02-12T01:07:57.065Z,97.60
2023-02-12T01:10:25.361Z,97.70
2023-02-12T01:12:53.578Z,98.20
2023-02-12T01:15:21.901Z,98.70
2023-02-12T01:17:50.148Z,99.40
2023-02-12T01:20:19.067Z,98.50
2023-02-12T01:22:47.368Z,99.00
2023-02-12T01:25:19.364Z,99.00
2023-02-12T01:27:48.835Z,99.10
2023-02-12T01:30:17.724Z,98.10
2023-02-12T01:32:45.985Z,96.50
2023-02-12T01:35:14.294Z,97.60
2023-02-12T01:37:42.527Z,98.50
2023-02-12T01:40:12.909Z,98.60
2023-02-12T01:42:42.549Z,98.60
2023-02-12T01:45:41.322Z,99.80
2023-02-12T01:48:09.548Z,99.90
2023-02-12T01:50:37.832Z,99.90
2023-02-12T01:53:06.070Z,99.90
2023-02-12T01:55:34.306Z,99.90
2023-02-12T01:58:03.975Z,99.90
2023-02-12T02:00:33.262Z,99.90
2023-02-12T02:03:01.770Z,99.90
2023-02-12T02:05:33.004Z,99.90
2023-02-12T02:08:01.232Z,99.90
2023-02-12T02:10:31.096Z,99.90
2023-02-12T02:13:16.738Z,99.90
2023-02-12T02:15:48.339Z,99.90
2023-02-12T02:18:18.914Z,99.90
2023-02-12T02:21:00.918Z,99.90
2023-02-12T02:23:41.283Z,99.90
2023-02-12T02:26:35.025Z,99.90
2023-02-12T02:29:22.156Z,99.90
2023-02-12T02:31:52.895Z,99.90
2023-02-12T02:34:22.483Z,99.90
2023-02-12T02:37:00.634Z,99.90
2023-02-12T02:39:30.833Z,99.90
2023-02-12T02:42:01.904Z,99.90
2023-02-12T02:44:33.261Z,99.90
2023-02-12T02:47:03.066Z,99.90
2023-02-12T02:49:33.739Z,99.90
2023-02-12T02:52:03.377Z,99.90
2023-02-12T02:54:33.597Z,99.90
2023-02-12T02:57:03.138Z,99.90
2023-02-12T02:59:34.241Z,99.90
2023-02-12T03:02:08.361Z,99.90
2023-02-12T03:04:38.132Z,99.90
2023-02-12T03:07:08.493Z,99.90
2023-02-12T03:09:38.325Z,99.90
2023-02-12T03:12:07.855Z,99.90
2023-02-12T03:14:38.065Z,99.90
2023-02-12T03:17:10.132Z,99.90
2023-02-12T03:19:40.162Z,99.90
2023-02-12T03:22:09.820Z,99.90
2023-02-12T03:24:40.298Z,99.90
2023-02-12T03:27:11.961Z,99.90
2023-02-12T03:29:40.226Z,99.90
2023-02-12T03:32:24.271Z,99.90
2023-02-12T03:34:54.835Z,99.90
2023-02-12T03:37:32.312Z,99.90
2023-02-12T03:40:03.431Z,99.90
2023-02-12T03:42:35.757Z,99.90
2023-02-12T03:45:06.088Z,99.90
2023-02-12T03:47:42.877Z,99.90
2023-02-12T03:50:13.494Z,99.90
2023-02-12T03:52:41.713Z,99.90
2023-02-12T03:55:09.975Z,99.90
2023-02-12T03:57:40.558Z,99.90
2023-02-12T04:00:10.660Z,99.90
2023-02-12T04:02:40.282Z,99.90
2023-02-12T04:05:09.083Z,99.90
2023-02-12T04:07:37.296Z,99.90
2023-02-12T04:10:05.920Z,99.90
2023-02-12T04:12:41.423Z,99.90
2023-02-12T04:15:44.054Z,99.90
2023-02-12T04:18:16.151Z,99.90
2023-02-12T04:20:51.381Z,99.90
2023-02-12T04:23:27.576Z,99.90
2023-02-12T04:26:01.976Z,99.90
2023-02-12T04:28:37.596Z,99.90
2023-02-12T04:31:07.538Z,99.90
2023-02-12T04:33:41.344Z,99.90
2023-02-12T04:36:12.146Z,99.90
2023-02-12T04:38:42.021Z,99.90
2023-02-12T04:41:10.242Z,99.90
2023-02-12T04:43:38.644Z,99.90
2023-02-12T04:46:08.059Z,99.90
2023-02-12T04:48:37.976Z,99.90
2023-02-12T04:51:06.538Z,99.90
2023-02-12T04:53:34.769Z,99.90
2023-02-12T04:56:02.987Z,99.90
2023-02-12T04:58:31.456Z,99.90
2023-02-12T05:01:00.686Z,99.90
2023-02-12T05:03:28.970Z,99.90
2023-02-12T05:06:03.019Z,99.90
2023-02-12T05:08:31.268Z,99.90
2023-02-12T05:10:59.534Z,99.90
2023-02-12T05:13:28.111Z,99.90
2023-02-12T05:15:56.741Z,99.90
2023-02-12T05:18:25.208Z,99.90
2023-02-12T05:20:59.092Z,99.90
2023-02-12T05:23:28.497Z,99.90
2023-02-12T05:25:57.450Z,99.90
2023-02-12T05:28:25.897Z,99.90
2023-02-12T05:30:54.358Z,99.90
2023-02-12T05:33:22.795Z,99.90
2023-02-12T05:35:51.056Z,99.90
2023-02-12T05:38:20.686Z,99.90
2023-02-12T05:40:48.932Z,99.90
2023-02-12T05:43:17.195Z,99.90
2023-02-12T05:45:45.474Z,99.90
2023-02-12T05:48:13.724Z,99.90
2023-02-12T05:50:42.032Z,99.90
2023-02-12T05:53:10.328Z,99.90
2023-02-12T05:55:40.045Z,99.90
2023-02-12T05:58:08.266Z,99.90
2023-02-12T06:00:36.535Z,99.90
2023-02-12T06:03:04.894Z,99.90
2023-02-12T06:05:33.152Z,99.90
2023-02-12T06:08:01.458Z,99.90
2023-02-12T06:10:29.806Z,99.90
2023-02-12T06:12:59.548Z,99.90
2023-02-12T06:15:27.881Z,99.90
2023-02-12T06:17:56.100Z,99.90
2023-02-12T06:20:24.459Z,99.90
2023-02-12T06:22:52.691Z,99.90
2023-02-12T06:25:20.980Z,99.90
2023-02-12T06:27:49.187Z,99.90
2023-02-12T06:30:19.390Z,99.90
2023-02-12T06:32:50.811Z,99.90
2023-02-12T06:35:19.139Z,99.90
2023-02-12T06:37:47.422Z,99.90
2023-02-12T06:40:15.925Z,99.90
2023-02-12T06:42:44.272Z,99.90
2023-02-12T06:45:12.527Z,99.90
2023-02-12T06:47:42.122Z,99.90
2023-02-12T06:50:11.131Z,99.90
2023-02-12T06:52:39.340Z,99.90
2023-02-12T06:55:08.460Z,99.90
2023-02-12T06:57:36.726Z,99.90
2023-02-12T07:00:05.374Z,99.90
2023-02-12T07:02:33.642Z,99.90
2023-02-12T07:05:03.328Z,99.90
2023-02-12T07:07:31.558Z,99.90
2023-02-12T07:09:59.910Z,99.90
2023-02-12T07:12:28.128Z,99.90
2023-02-12T07:14:56.427Z,99.90
2023-02-12T07:17:24.661Z,99.90
2023-02-12T07:19:53.141Z,99.90
2023-02-12T07:22:22.822Z,99.90
2023-02-12T07:24:51.963Z,99.90
2023-02-12T07:27:20.241Z,99.90
2023-02-12T07:29:48.534Z,99.90
2023-02-12T07:32:16.971Z,99.90
2023-02-12T07:34:45.360Z,99.90
2023-02-12T07:37:13.612Z,99.90
2023-02-12T07:39:43.333Z,99.90
2023-02-12T07:42:15.099Z,99.90
2023-02-12T07:44:43.416Z,99.90
2023-02-12T07:47:11.629Z,99.90
2023-02-12T07:49:39.947Z,99.90
2023-02-12T07:52:08.211Z,99.90
2023-02-12T07:54:36.432Z,99.90
2023-02-12T07:57:06.124Z,99.90
2023-02-12T07:59:34.378Z,99.90
2023-02-12T08:02:02.721Z,99.90
2023-02-12T08:04:31.105Z,99.90
2023-02-12T08:06:59.434Z,99.90
2023-02-12T08:09:30.973Z,99.90
2023-02-12T08:11:59.583Z,99.90
2023-02-12T08:14:29.354Z,99.90
2023-02-12T08:16:57.621Z,99.90
2023-02-12T08:19:26.875Z,99.90
2023-02-12T08:21:55.966Z,99.90
2023-02-12T08:24:24.237Z,99.90
2023-02-12T08:26:52.521Z,99.60
2023-02-12T08:29:21.819Z,97.60
2023-02-12T08:31:52.049Z,95.10
2023-02-12T08:34:21.466Z,89.40
2023-02-12T08:36:50.237Z,81.40
2023-02-12T08:39:18.723Z,76.60
2023-02-12T08:41:47.145Z,67.70
2023-02-12T08:44:15.768Z,57.80
2023-02-12T08:46:46.098Z,24.40
2023-02-12T08:49:16.442Z,19.10
2023-02-12T08:51:45.939Z,12.30
2023-02-12T08:54:15.246Z,1.00
2023-02-12T08:56:45.243Z,1.00
2023-02-12T08:59:13.773Z,1.00
2023-02-12T09:01:42.278Z,99.90
2023-02-12T09:04:12.117Z,99.90
2023-02-12T09:06:41.812Z,99.90
2023-02-12T09:09:10.068Z,99.90
2023-02-12T09:11:38.443Z,76.50
2023-02-12T09:14:08.279Z,75.10
2023-02-12T09:16:37.274Z,1.00
2023-02-12T09:19:05.571Z,1.00
2023-02-12T09:21:33.852Z,1.00
2023-02-12T09:24:04.324Z,93.50
2023-02-12T09:26:32.712Z,99.90
2023-02-12T09:29:02.432Z,1.00
2023-02-12T09:31:31.465Z,1.00
2023-02-12T09:34:00.996Z,1.00
2023-02-12T09:36:29.529Z,1.00
2023-02-12T09:38:59.520Z,1.00
2023-02-12T09:41:43.277Z,1.00
2023-02-12T09:44:16.413Z,1.00
2023-02-12T09:46:47.217Z,99.90
2023-02-12T09:49:19.281Z,99.90
2023-02-12T09:51:51.569Z,99.90
2023-02-12T09:54:20.835Z,99.90
2023-02-12T09:56:51.835Z,99.90
2023-02-12T09:59:24.320Z,99.90
2023-02-12T10:01:52.713Z,99.90
2023-02-12T10:04:21.016Z,99.90
2023-02-12T10:06:51.986Z,99.90
2023-02-12T10:09:30.625Z,99.90
2023-02-12T10:12:04.765Z,99.90
2023-02-12T10:15:14.724Z,99.90
2023-02-12T10:17:44.179Z,99.90
2023-02-12T10:20:48.009Z,99.90
2023-02-12T10:23:38.736Z,99.90
2023-02-12T10:26:12.141Z,99.90
2023-02-12T10:31:16.691Z,99.90
2023-02-12T10:33:46.365Z,99.90
2023-02-12T10:36:20.045Z,99.90
2023-02-12T10:38:50.564Z,18.90
2023-02-12T10:43:48.762Z,19.20
2023-02-12T10:46:17.234Z,99.90
2023-02-12T10:48:46.190Z,58.40
2023-02-12T10:51:26.465Z,53.90
2023-02-12T10:53:54.827Z,1.00
2023-02-12T10:56:24.712Z,1.00
2023-02-12T10:58:56.060Z,1.00
2023-02-12T11:01:27.153Z,1.00
2023-02-12T11:03:55.897Z,1.00
2023-02-12T11:06:25.750Z,1.00
2023-02-12T11:08:54.086Z,1.00
2023-02-12T11:11:26.238Z,1.00
2023-02-12T11:14:01.190Z,1.00
2023-02-12T11:16:33.202Z,1.00
2023-02-12T11:19:02.690Z,1.00
2023-02-12T11:21:31.070Z,1.00
2023-02-12T11:23:59.430Z,1.00
2023-02-12T11:26:28.974Z,1.00
2023-02-12T11:28:59.505Z,1.00
2023-02-12T11:31:28.988Z,1.00
2023-02-12T11:36:39.681Z,20.20
2023-02-12T11:39:10.713Z,99.90
2023-02-12T11:41:39.472Z,20.30
2023-02-12T11:44:13.933Z,1.00
2023-02-12T11:46:42.287Z,1.00
2023-02-12T11:49:15.165Z,1.00
2023-02-12T11:51:43.526Z,1.00
2023-02-12T11:54:19.919Z,1.00
2023-02-12T11:56:48.210Z,1.00
2023-02-12T11:59:28.845Z,1.00
2023-02-12T12:01:57.951Z,1.00
2023-02-12T12:04:26.745Z,1.00
2023-02-12T12:06:56.962Z,1.00
2023-02-12T12:09:26.780Z,1.00
2023-02-12T12:11:59.305Z,1.00
2023-02-12T12:14:30.629Z,1.00
2023-02-12T12:17:20.881Z,1.00
2023-02-12T12:19:55.971Z,1.00
2023-02-12T12:22:43.930Z,1.00
2023-02-12T12:25:17.731Z,1.00
2023-02-12T12:28:09.689Z,1.00
2023-02-12T12:30:55.234Z,1.00
2023-02-12T12:33:28.280Z,1.00
2023-02-12T12:36:03.906Z,1.00
2023-02-12T12:38:39.508Z,1.00
2023-02-12T12:41:12.248Z,1.00
2023-02-12T12:43:48.321Z,1.00
2023-02-12T12:46:50.240Z,1.00
2023-02-12T12:49:32.097Z,1.00
2023-02-12T12:52:16.216Z,1.00
2023-02-12T12:55:04.069Z,1.00
2023-02-12T12:57:41.195Z,1.00
2023-02-12T13:00:27.117Z,1.00
2023-02-12T13:03:26.373Z,1.00
2023-02-12T13:06:07.615Z,1.00
2023-02-12T13:08:46.591Z,1.00
2023-02-12T13:11:21.714Z,1.00
2023-02-12T13:13:50.995Z,1.00
2023-02-12T13:16:21.520Z,1.00
2023-02-12T13:18:56.622Z,1.00
2023-02-12T13:21:35.506Z,1.00
2023-02-12T13:24:05.777Z,1.00
2023-02-12T13:26:38.373Z,1.00
2023-02-12T13:29:09.134Z,1.00
2023-02-12T13:31:40.312Z,1.00
2023-02-12T13:34:15.074Z,1.00
2023-02-12T13:36:43.337Z,1.00
2023-02-12T13:39:16.907Z,1.00
2023-02-12T13:41:49.012Z,1.00
2023-02-12T13:44:21.291Z,1.00
2023-02-12T13:46:53.132Z,1.00
2023-02-12T13:49:39.189Z,1.00
2023-02-12T13:52:08.560Z,1.00
2023-02-12T13:54:42.349Z,1.00
2023-02-12T13:57:12.783Z,1.00
2023-02-12T13:59:49.015Z,1.00
2023-02-12T14:02:44.720Z,1.00
2023-02-12T14:05:24.700Z,1.00
2023-02-12T14:07:53.760Z,1.00
2023-02-12T14:10:27.362Z,1.00
2023-02-12T14:12:56.780Z,1.00
2023-02-12T14:15:31.812Z,1.00
2023-02-12T14:18:07.172Z,1.00
2023-02-12T14:20:37.071Z,1.00
2023-02-12T14:23:23.084Z,1.00
2023-02-12T14:26:00.796Z,1.00
2023-02-12T14:28:34.533Z,1.00
2023-02-12T14:31:41.981Z,1.00
2023-02-12T14:34:50.129Z,1.00
2023-02-12T14:37:40.906Z,1.00
2023-02-12T14:40:42.680Z,1.00
2023-02-12T14:43:29.475Z,1.00
2023-02-12T14:45:58.986Z,1.00
2023-02-12T14:48:41.533Z,1.00
2023-02-12T14:51:11.186Z,1.00
2023-02-12T14:53:40.812Z,1.00
2023-02-12T14:56:09.524Z,1.00
2023-02-12T14:58:37.806Z,1.00
2023-02-12T15:01:06.268Z,1.00
2023-02-12T15:03:40.179Z,1.00
2023-02-12T15:06:14.647Z,1.00
2023-02-12T15:08:46.424Z,1.00
2023-02-12T15:11:21.476Z,1.00
2023-02-12T15:13:51.210Z,1.00
2023-02-12T15:16:26.285Z,1.00
2023-02-12T15:18:57.062Z,1.00
2023-02-12T15:21:26.109Z,1.00
2023-02-12T15:24:05.364Z,1.00
2023-02-12T15:26:35.213Z,1.00
2023-02-12T15:29:03.556Z,20.50
2023-02-12T15:31:32.201Z,1.00
2023-02-12T15:34:01.862Z,1.00
2023-02-12T15:36:31.082Z,1.00
2023-02-12T15:39:00.316Z,34.00
2023-02-12T15:41:35.927Z,63.50
2023-02-12T15:44:05.272Z,61.10
2023-02-12T15:46:33.577Z,96.90
2023-02-12T15:49:01.930Z,99.90
2023-02-12T15:51:31.309Z,99.90
2023-02-12T15:53:59.966Z,99.90
2023-02-12T15:56:30.341Z,99.90
2023-02-12T15:58:59.103Z,99.90
2023-02-12T16:01:28.115Z,99.90
2023-02-12T16:03:57.817Z,99.90
2023-02-12T16:06:26.996Z,1.00
2023-02-12T16:08:58.649Z,99.90
2023-02-12T16:11:27.059Z,99.90
2023-02-12T16:13:58.177Z,99.90
2023-02-12T16:16:27.233Z,99.90
2023-02-12T16:19:06.644Z,99.90
2023-02-12T16:21:36.050Z,1.00
2023-02-12T16:24:04.521Z,1.00
2023-02-12T16:26:32.804Z,1.00
2023-02-12T16:29:02.490Z,1.00
2023-02-12T16:31:30.976Z,1.00
2023-02-12T16:36:32.574Z,99.90
2023-02-12T16:39:02.458Z,1.00
2023-02-12T16:41:31.841Z,1.00
2023-02-12T16:44:23.924Z,1.00
2023-02-12T16:46:52.735Z,1.00
2023-02-12T16:49:22.054Z,1.00
2023-02-12T16:51:50.564Z,1.00
2023-02-12T16:54:29.584Z,1.00
2023-02-12T16:56:57.988Z,24.60
2023-02-12T16:59:27.759Z,53.40
2023-02-12T17:02:00.787Z,31.20
2023-02-12T17:04:29.133Z,99.90
2023-02-12T17:06:58.051Z,99.90
2023-02-12T17:09:26.374Z,99.90
2023-02-12T17:11:54.632Z,99.90
2023-02-12T17:14:22.888Z,99.90
2023-02-12T17:16:52.590Z,99.90
2023-02-12T17:19:21.982Z,1.00
2023-02-12T17:21:51.975Z,1.00
2023-02-12T17:24:24.634Z,1.00
2023-02-12T17:26:53.087Z,1.00
2023-02-12T17:29:22.249Z,1.00
2023-02-12T17:31:50.658Z,1.00
2023-02-12T17:34:20.435Z,1.00
2023-02-12T17:36:48.667Z,1.00
2023-02-12T17:39:17.184Z,24.30
2023-02-12T17:41:45.613Z,23.00
2023-02-12T17:44:15.223Z,13.40
2023-02-12T17:46:43.751Z,16.60
2023-02-12T17:49:11.987Z,46.00
2023-02-12T17:51:42.781Z,99.90
2023-02-12T17:54:11.001Z,99.90
2023-02-12T17:56:39.301Z,99.90
2023-02-12T17:59:07.552Z,99.90
2023-02-12T18:01:36.067Z,1.00
2023-02-12T18:04:04.450Z,99.90
2023-02-12T18:06:32.955Z,1.00
2023-02-12T18:09:02.802Z,1.00
2023-02-12T18:11:32.168Z,1.00
2023-02-12T18:14:00.542Z,1.00
2023-02-12T18:16:31.728Z,1.00
2023-02-12T18:19:01.065Z,1.00
2023-02-12T18:21:29.517Z,1.00
2023-02-12T18:23:57.900Z,1.00
2023-02-12T18:26:27.549Z,1.00
2023-02-12T18:31:24.492Z,1.00
2023-02-12T18:33:52.823Z,1.00
2023-02-12T18:36:21.599Z,3.90
2023-02-12T18:43:49.192Z,99.90
2023-02-12T18:46:18.801Z,99.90
2023-02-12T18:48:47.036Z,80.20
2023-02-12T18:51:16.712Z,99.90
2023-02-12T18:53:45.116Z,99.90
2023-02-12T18:56:13.469Z,99.90
2023-02-12T18:58:41.859Z,99.90
2023-02-12T19:01:20.135Z,99.90
2023-02-12T19:03:48.758Z,99.90
2023-02-12T19:06:17.096Z,99.90
2023-02-12T19:08:45.379Z,99.90
2023-02-12T19:11:15.669Z,99.90
2023-02-12T19:13:44.071Z,99.90
2023-02-12T19:16:14.073Z,99.90
2023-02-12T19:18:43.731Z,99.90
2023-02-12T19:21:13.139Z,99.90
2023-02-12T19:23:41.529Z,99.90
2023-02-12T19:26:12.478Z,99.90
2023-02-12T19:28:40.833Z,99.90
2023-02-12T19:31:15.142Z,1.00
2023-02-12T20:25:43.581Z,1.00
2023-02-12T20:32:13.841Z,1.00
2023-02-12T20:34:50.545Z,1.00
2023-02-12T20:37:19.324Z,66.40
2023-02-12T20:39:48.159Z,52.20
2023-02-12T20:42:16.535Z,99.30
2023-02-12T20:44:44.832Z,99.90
2023-02-12T20:47:14.510Z,99.90
2023-02-12T20:49:42.816Z,99.90
2023-02-12T20:52:11.171Z,99.90
2023-02-12T20:54:39.721Z,99.90
2023-02-12T20:57:08.006Z,99.90
2023-02-12T20:59:36.361Z,99.90
2023-02-12T21:02:04.615Z,99.90
2023-02-12T21:04:34.457Z,99.90
2023-02-12T21:07:02.719Z,1.00
2023-02-12T21:09:31.092Z,1.00
2023-02-12T21:11:59.343Z,1.00
2023-02-12T21:14:27.820Z,1.00
2023-02-12T21:16:56.571Z,45.50
2023-02-12T21:19:24.898Z,99.90
2023-02-12T21:21:54.689Z,99.90
2023-02-12T21:24:27.079Z,99.90
2023-02-12T21:26:55.810Z,99.90
2023-02-12T21:29:26.062Z,99.90
2023-02-12T21:31:55.249Z,99.90
2023-02-12T21:34:24.698Z,99.90
2023-02-12T21:36:56.091Z,99.90
2023-02-12T21:39:27.231Z,99.90
2023-02-12T21:41:56.758Z,99.90
2023-02-12T21:44:25.394Z,99.90
2023-02-12T21:46:54.070Z,99.90
2023-02-12T21:49:27.656Z,99.90
2023-02-12T21:51:58.322Z,99.90
2023-02-12T21:54:26.718Z,99.90
2023-02-12T21:56:54.997Z,99.90
2023-02-12T21:59:24.819Z,1.00
2023-02-12T22:01:54.063Z,1.00
2023-02-12T22:04:22.289Z,1.00
2023-02-12T22:06:51.459Z,1.00
2023-02-12T22:09:21.975Z,1.00
2023-02-12T22:11:52.324Z,1.00
2023-02-12T22:14:20.775Z,1.00
2023-02-12T22:16:49.158Z,1.00
2023-02-12T22:19:17.464Z,1.00
2023-02-12T22:21:45.770Z,1.00
2023-02-12T22:24:15.547Z,1.00
2023-02-12T22:26:45.339Z,1.00
2023-02-12T22:29:15.712Z,1.00
2023-02-12T22:31:44.905Z,1.00
2023-02-12T22:34:14.549Z,99.90
2023-02-12T22:36:42.869Z,1.00
2023-02-12T22:39:13.019Z,1.00
2023-02-12T22:41:42.020Z,1.00
2023-02-12T22:44:12.427Z,1.00
2023-02-12T22:46:40.719Z,1.00
2023-02-12T22:49:09.026Z,1.00
2023-02-12T22:51:39.572Z,1.00
2023-02-12T22:54:08.006Z,1.00
2023-02-12T22:56:36.298Z,1.00
2023-02-12T22:59:04.558Z,1.00
2023-02-12T23:01:34.362Z,1.00
2023-02-12T23:04:02.710Z,1.00
2023-02-12T23:06:31.645Z,1.00
2023-02-12T23:09:00.760Z,1.00
2023-02-12T23:11:29.559Z,1.00
2023-02-12T23:13:57.908Z,1.00
2023-02-12T23:16:26.438Z,31.30
2023-02-12T23:18:57.565Z,39.20
2023-02-12T23:21:26.052Z,34.70
2023-02-12T23:23:54.522Z,60.80
2023-02-12T23:26:22.872Z,72.00
2023-02-12T23:28:51.123Z,89.20
2023-02-12T23:31:19.500Z,83.20
2023-02-12T23:33:47.841Z,74.90
2023-02-12T23:36:17.497Z,94.40
2023-02-12T23:38:45.712Z,99.90
2023-02-12T23:41:13.985Z,99.90
2023-02-12T23:43:42.213Z,99.90
2023-02-12T23:46:10.457Z,99.90
2023-02-12T23:48:38.757Z,99.90
2023-02-12T23:51:07.445Z,99.90
2023-02-12T23:53:37.080Z,99.90
2023-02-12T23:56:05.425Z,99.90
2023-02-12T23:58:33.660Z,99.90
